Juneau, AK

1:24 AM AKDT on April 25, 2017 (GMT -0800)
Juneau International | | Change Station

Elev 16 ft 58.35 °N, 134.58 °W | Updated 31 minutes ago

Overcast
Overcast
45 °F
Feels Like 41 °F
N
7
Wind Variable Wind from ENE

Today
High -- | Low -- °F
--% Chance of Precip.
Yesterday
High -- | Low -- °F
Precip. -- in
Pressure 29.81 in
Visibility 10.0 miles
Clouds Few 1200 ft
Mostly Cloudy 3200 ft
Overcast 4900 ft
Windchill 41 °F
Dew Point 44 °F
Humidity 97%
Rainfall 0.02 in
Snow Depth Not available.
5:18 AM 8:35 PM
Waning Crescent, 2% visible
METAR PAJN 250853Z 06006KT 10SM -RA FEW012 BKN032 OVC049 07/07 A2980 RMK AO2 SLP092 P0002 60004 T00720067 401330028 50002
Pressure 29.81 in
Visibility 10.0 miles
Clouds Few 1200 ft
Mostly Cloudy 3200 ft
Overcast 4900 ft
Windchill 41 °F
Dew Point 44 °F
Humidity 97%
Rainfall 0.02 in
Snow Depth Not available.
5:18 AM 8:35 PM
Waning Crescent, 2% visible
METAR PAJN 250853Z 06006KT 10SM -RA FEW012 BKN032 OVC049 07/07 A2980 RMK AO2 SLP092 P0002 60004 T00720067 401330028 50002

Get Severe Weather Alerts

Thanks for signing up!

Be on the lookout for a verification email in your inbox.

You'll start receiving the daily forecast at 8 AM.

×

10-Day Weather Forecast

Almanac

Astronomy

Apr. 25, 2017 Rise Set
Actual Time
Civil Twilight
Nautical Twilight
Astronomical Twilight
Moon
Length of Visible Light
Length of Day
Tomorrow will be .
, % of the Moon is Illuminated

Today's Extremes

State Highs State Lows

Community

WunderPhotos

WunderBlog® & News

Nearby

Air Quality

  Air Quality AQ Index Pollutant
Not available.

Snow Depth

Station Depth Elevation

Earthquake Activity

City Distance Mag. Time & Date
Minimum magnitude displayed is 2.5.

Coastal Water Temperatures

Place Temperature

Stations

Nearby Weather Stations

Station Location Temp. Windchill Dew Point Humidity Wind Precip. Elev Updated Type
                   

Watches & Warnings

There are currently no watches in effect.